createdAt,value
2019-02-03T00:01:14.262Z,67.30
2019-02-03T00:03:40.923Z,62.10
2019-02-03T00:06:07.669Z,78.65
2019-02-03T00:08:34.356Z,70.80
2019-02-03T00:11:01.026Z,74.90
2019-02-03T00:13:31.036Z,78.75
2019-02-03T00:15:56.876Z,74.82
2019-02-03T00:18:23.551Z,77.12
2019-02-03T00:20:50.098Z,81.00
2019-02-03T00:23:16.572Z,83.95
2019-02-03T00:25:43.144Z,90.75
2019-02-03T00:28:09.776Z,91.20
2019-02-03T00:30:36.723Z,83.75
2019-02-03T00:33:03.413Z,84.55
2019-02-03T00:35:29.987Z,84.32
2019-02-03T00:37:56.491Z,98.50
2019-02-03T00:40:23.022Z,84.35
2019-02-03T00:42:49.740Z,70.22
2019-02-03T00:45:16.422Z,89.65
2019-02-03T00:47:43.068Z,87.35
2019-02-03T00:50:12.549Z,83.52
2019-02-03T00:52:39.362Z,93.80
2019-02-03T00:55:14.814Z,74.37
2019-02-03T00:57:41.353Z,84.05
2019-02-03T01:00:11.929Z,77.25
2019-02-03T01:02:38.473Z,91.55
2019-02-03T01:05:08.840Z,87.35
2019-02-03T01:07:35.497Z,114.60
2019-02-03T01:10:04.627Z,83.15
2019-02-03T01:12:31.177Z,82.02
2019-02-03T01:14:57.756Z,78.97
2019-02-03T01:17:24.456Z,71.62
2019-02-03T01:19:51.136Z,83.07
2019-02-03T01:22:17.593Z,65.17
2019-02-03T01:24:44.159Z,66.17
2019-02-03T01:27:10.713Z,71.70
2019-02-03T01:29:37.180Z,70.50
2019-02-03T01:32:03.848Z,62.38
2019-02-03T01:34:30.353Z,57.83
2019-02-03T01:36:56.983Z,69.42
2019-02-03T01:39:23.332Z,68.42
2019-02-03T01:41:49.796Z,73.12
2019-02-03T01:44:16.379Z,65.10
2019-02-03T01:46:42.924Z,69.03
2019-02-03T01:49:09.387Z,66.10
2019-02-03T01:51:36.139Z,73.85
2019-02-03T01:54:02.985Z,66.65
2019-02-03T01:56:30.329Z,66.97
2019-02-03T01:58:56.772Z,77.17
2019-02-03T02:01:23.446Z,68.15
2019-02-03T02:03:50.083Z,80.92
2019-02-03T02:06:16.647Z,66.85
2019-02-03T02:08:43.295Z,71.15
2019-02-03T02:11:09.969Z,77.60
2019-02-03T02:13:36.426Z,69.47
2019-02-03T02:16:03.285Z,75.12
2019-02-03T02:18:29.737Z,72.55
2019-02-03T02:20:56.553Z,68.28
2019-02-03T02:23:23.310Z,75.22
2019-02-03T02:25:49.848Z,76.37
2019-02-03T02:28:16.620Z,78.75
2019-02-03T02:30:43.285Z,72.05
2019-02-03T02:33:09.980Z,72.65
2019-02-03T02:35:36.431Z,79.65
2019-02-03T02:38:07.334Z,87.57
2019-02-03T02:40:31.322Z,74.87
2019-02-03T02:42:58.008Z,82.12
2019-02-03T02:45:24.445Z,79.95
2019-02-03T02:47:50.933Z,76.65
2019-02-03T02:50:20.171Z,81.75
2019-02-03T02:52:46.794Z,81.42
2019-02-03T02:55:13.419Z,85.42
2019-02-03T02:57:40.089Z,87.47
2019-02-03T03:00:10.909Z,71.72
2019-02-03T03:02:37.388Z,85.05
2019-02-03T03:05:07.033Z,86.75
2019-02-03T03:07:33.576Z,80.40
2019-02-03T03:10:00.322Z,75.78
2019-02-03T03:12:26.700Z,76.47
2019-02-03T03:14:53.584Z,84.15
2019-02-03T03:17:20.019Z,93.30
2019-02-03T03:19:46.489Z,85.83
2019-02-03T03:22:13.041Z,97.95
2019-02-03T03:24:40.004Z,88.52
2019-02-03T03:27:06.564Z,88.10
2019-02-03T03:29:33.994Z,99.87
2019-02-03T03:32:00.708Z,93.90
2019-02-03T03:34:27.176Z,85.00
2019-02-03T03:36:53.617Z,95.45
2019-02-03T03:39:20.165Z,99.80
2019-02-03T03:41:46.724Z,102.22
2019-02-03T03:44:13.582Z,98.67
2019-02-03T03:46:40.160Z,95.38
2019-02-03T03:49:07.000Z,87.78
2019-02-03T03:51:33.569Z,94.37
2019-02-03T03:54:00.109Z,88.55
2019-02-03T03:56:26.580Z,90.45
2019-02-03T03:58:53.135Z,88.20
2019-02-03T04:01:19.700Z,89.52
2019-02-03T04:03:46.349Z,89.03
2019-02-03T04:06:13.202Z,75.37
2019-02-03T04:08:45.159Z,90.97
2019-02-03T04:11:08.276Z,76.17
2019-02-03T04:13:34.739Z,87.65
2019-02-03T04:16:01.280Z,93.30
2019-02-03T04:18:27.855Z,82.80
2019-02-03T04:20:54.416Z,82.08
2019-02-03T04:23:21.089Z,85.40
2019-02-03T04:25:49.542Z,90.28
2019-02-03T04:28:16.008Z,79.62
2019-02-03T04:30:42.494Z,88.10
2019-02-03T04:33:08.978Z,66.60
2019-02-03T04:35:35.424Z,79.00
2019-02-03T04:38:01.970Z,73.97
2019-02-03T04:40:28.635Z,78.70
2019-02-03T04:42:55.290Z,80.35
2019-02-03T04:45:22.765Z,83.78
2019-02-03T04:47:49.516Z,74.60
2019-02-03T04:50:17.885Z,77.27
2019-02-03T04:52:44.439Z,69.37
2019-02-03T04:55:14.692Z,86.37
2019-02-03T04:57:41.239Z,74.72
2019-02-03T05:00:11.216Z,75.42
2019-02-03T05:02:37.661Z,77.42
2019-02-03T05:05:05.117Z,81.08
2019-02-03T05:07:31.684Z,74.77
2019-02-03T05:09:58.129Z,73.47
2019-02-03T05:12:24.709Z,75.60
2019-02-03T05:14:51.162Z,77.90
2019-02-03T05:17:18.979Z,69.67
2019-02-03T05:19:45.880Z,74.95
2019-02-03T05:22:12.359Z,82.85
2019-02-03T05:24:38.791Z,78.17
2019-02-03T05:27:05.260Z,74.90
2019-02-03T05:29:32.127Z,80.77
2019-02-03T05:31:58.595Z,74.10
2019-02-03T05:34:25.044Z,79.03
2019-02-03T05:36:51.602Z,70.92
2019-02-03T05:39:25.031Z,75.42
2019-02-03T05:41:46.617Z,74.70
2019-02-03T05:44:13.170Z,83.45
2019-02-03T05:46:39.910Z,74.27
2019-02-03T05:49:06.475Z,85.22
2019-02-03T05:51:33.070Z,84.55
2019-02-03T05:53:59.548Z,85.92
2019-02-03T05:56:26.095Z,87.65
2019-02-03T05:58:52.683Z,74.22
2019-02-03T06:01:19.120Z,79.62
2019-02-03T06:03:45.563Z,84.22
2019-02-03T06:06:12.132Z,79.55
2019-02-03T06:08:38.593Z,85.55
2019-02-03T06:11:05.064Z,99.15
2019-02-03T06:13:31.529Z,77.70
2019-02-03T06:15:57.988Z,75.25
2019-02-03T06:18:24.557Z,100.67
2019-02-03T06:20:51.016Z,97.37
2019-02-03T06:23:17.572Z,90.53
2019-02-03T06:25:44.491Z,90.22
2019-02-03T06:28:11.072Z,80.55
2019-02-03T06:30:53.216Z,80.15
2019-02-03T06:33:19.764Z,85.53
2019-02-03T06:35:46.409Z,93.58
2019-02-03T06:38:12.892Z,71.92
2019-02-03T06:40:39.538Z,84.47
2019-02-03T06:43:06.014Z,68.30
2019-02-03T06:45:40.236Z,72.37
2019-02-03T06:48:07.490Z,74.15
2019-02-03T06:50:34.227Z,80.72
2019-02-03T06:53:00.702Z,73.30
2019-02-03T06:55:27.260Z,74.10
2019-02-03T06:57:54.172Z,68.02
2019-02-03T07:00:20.653Z,60.55
2019-02-03T07:02:47.369Z,65.30
2019-02-03T07:05:13.849Z,63.52
2019-02-03T07:07:40.298Z,77.05
2019-02-03T07:10:09.175Z,67.75
2019-02-03T07:12:35.623Z,59.48
2019-02-03T07:15:04.392Z,68.17
2019-02-03T07:17:30.945Z,71.15
2019-02-03T07:19:57.415Z,75.67
2019-02-03T07:22:24.112Z,62.48
2019-02-03T07:24:50.963Z,70.10
2019-02-03T07:27:17.541Z,75.57
2019-02-03T07:29:44.101Z,61.02
2019-02-03T07:32:10.576Z,76.20
2019-02-03T07:34:37.280Z,67.12
2019-02-03T07:37:04.059Z,67.20
2019-02-03T07:39:30.605Z,68.35
2019-02-03T07:41:57.647Z,60.92
2019-02-03T07:44:24.096Z,66.28
2019-02-03T07:46:50.810Z,70.92
2019-02-03T07:49:17.567Z,75.25
2019-02-03T07:51:44.128Z,57.03
2019-02-03T07:54:10.704Z,66.07
2019-02-03T07:56:37.153Z,63.28
2019-02-03T07:59:03.728Z,70.50
2019-02-03T08:01:30.380Z,70.47
2019-02-03T08:03:56.950Z,75.00
2019-02-03T08:06:23.498Z,68.15
2019-02-03T08:08:50.069Z,67.03
2019-02-03T08:11:16.620Z,59.08
2019-02-03T08:13:43.180Z,67.12
2019-02-03T08:16:09.740Z,57.62
2019-02-03T08:18:36.604Z,65.57
2019-02-03T08:21:03.522Z,50.10
2019-02-03T08:23:30.261Z,63.38
2019-02-03T08:25:56.849Z,66.97
2019-02-03T08:28:23.388Z,70.25
2019-02-03T08:30:50.211Z,63.50
2019-02-03T08:33:16.774Z,58.75
2019-02-03T08:35:43.542Z,54.77
2019-02-03T08:38:10.088Z,69.47
2019-02-03T08:40:37.665Z,49.93
2019-02-03T08:43:06.117Z,52.85
2019-02-03T08:45:32.702Z,58.15
2019-02-03T08:47:59.349Z,57.30
2019-02-03T08:50:26.004Z,68.60
2019-02-03T08:52:52.986Z,59.18
2019-02-03T08:55:19.729Z,63.45
2019-02-03T08:57:46.776Z,67.05
2019-02-03T09:00:22.809Z,64.00
2019-02-03T09:02:49.571Z,64.40
2019-02-03T09:05:16.619Z,49.63
2019-02-03T09:07:43.687Z,51.28
2019-02-03T09:10:16.747Z,54.67
2019-02-03T09:12:43.407Z,55.38
2019-02-03T09:15:13.460Z,61.35
2019-02-03T09:17:39.947Z,48.05
2019-02-03T09:20:10.461Z,51.80
2019-02-03T09:22:40.041Z,38.30
2019-02-03T09:25:07.804Z,48.52
2019-02-03T09:27:34.348Z,48.83
2019-02-03T09:30:00.813Z,45.60
2019-02-03T09:32:27.551Z,52.45
2019-02-03T09:34:54.026Z,44.18
2019-02-03T09:37:20.869Z,40.73
2019-02-03T09:39:47.533Z,47.73
2019-02-03T09:42:14.080Z,48.95
2019-02-03T09:44:40.543Z,44.70
2019-02-03T09:47:06.988Z,36.30
2019-02-03T09:49:33.540Z,45.12
2019-02-03T09:52:00.116Z,41.40
2019-02-03T09:54:26.575Z,44.70
2019-02-03T09:56:53.446Z,40.83
2019-02-03T09:59:19.892Z,40.00
2019-02-03T10:01:46.456Z,36.53
2019-02-03T10:04:12.904Z,39.00
2019-02-03T10:06:39.380Z,39.30
2019-02-03T10:09:06.132Z,39.67
2019-02-03T10:11:33.020Z,35.45
2019-02-03T10:13:59.464Z,36.23
2019-02-03T10:16:25.913Z,32.58
2019-02-03T10:18:52.484Z,28.98
2019-02-03T10:21:18.963Z,30.27
2019-02-03T10:23:45.523Z,34.58
2019-02-03T10:26:12.179Z,31.93
2019-02-03T10:28:38.656Z,28.07
2019-02-03T10:31:05.202Z,25.60
2019-02-03T10:33:31.964Z,25.68
2019-02-03T10:35:58.413Z,30.30
2019-02-03T10:38:24.880Z,31.73
2019-02-03T10:40:51.527Z,26.75
2019-02-03T10:43:18.092Z,18.90
2019-02-03T10:45:44.660Z,25.10
2019-02-03T10:48:11.424Z,28.32
2019-02-03T10:50:38.424Z,21.95
2019-02-03T10:53:07.677Z,16.50
2019-02-03T10:55:34.153Z,21.13
2019-02-03T10:58:00.983Z,18.23
2019-02-03T11:00:33.657Z,19.60
2019-02-03T11:03:00.698Z,18.57
2019-02-03T11:05:32.892Z,25.05
2019-02-03T11:07:59.557Z,18.73
2019-02-03T11:10:27.023Z,22.07
2019-02-03T11:12:53.789Z,16.40
2019-02-03T11:15:21.360Z,16.90
2019-02-03T11:17:48.239Z,16.70
2019-02-03T11:20:25.706Z,16.77
2019-02-03T11:22:53.131Z,15.67
2019-02-03T11:25:21.076Z,11.67
2019-02-03T11:27:48.251Z,13.07
2019-02-03T11:30:17.307Z,16.33
2019-02-03T11:32:44.175Z,13.47
2019-02-03T11:35:11.754Z,14.33
2019-02-03T11:37:38.424Z,17.10
2019-02-03T11:40:08.927Z,16.60
2019-02-03T11:42:35.403Z,13.83
2019-02-03T11:45:04.064Z,11.70
2019-02-03T11:47:30.555Z,13.22
2019-02-03T11:50:00.001Z,14.40
2019-02-03T11:52:25.778Z,17.32
2019-02-03T11:54:52.252Z,18.48
2019-02-03T11:57:19.016Z,12.85
2019-02-03T11:59:46.611Z,9.33
2019-02-03T12:02:13.352Z,12.43
2019-02-03T12:04:39.824Z,9.18
2019-02-03T12:07:06.368Z,8.48
2019-02-03T12:09:32.850Z,10.23
2019-02-03T12:12:00.928Z,11.05
2019-02-03T12:14:27.855Z,10.93
2019-02-03T12:16:54.313Z,9.20
2019-02-03T12:19:20.888Z,9.10
2019-02-03T12:21:47.597Z,12.70
2019-02-03T12:24:14.962Z,9.55
2019-02-03T12:26:41.805Z,11.28
2019-02-03T12:29:08.352Z,11.50
2019-02-03T12:31:34.936Z,12.35
2019-02-03T12:34:01.748Z,8.18
2019-02-03T12:36:28.231Z,11.83
2019-02-03T12:38:54.672Z,10.35
2019-02-03T12:41:21.532Z,12.45
2019-02-03T12:43:48.092Z,8.58
2019-02-03T12:46:14.980Z,13.18
2019-02-03T12:48:41.530Z,7.50
2019-02-03T12:51:08.076Z,9.20
2019-02-03T12:53:34.739Z,6.95
2019-02-03T12:56:01.315Z,8.13
2019-02-03T12:58:28.057Z,7.25
2019-02-03T13:00:54.612Z,5.85
2019-02-03T13:03:21.392Z,7.53
2019-02-03T13:05:48.435Z,4.70
2019-02-03T13:08:14.917Z,3.60
2019-02-03T13:10:41.661Z,10.40
2019-02-03T13:13:08.442Z,11.45
2019-02-03T13:15:40.994Z,6.42
2019-02-03T13:18:07.750Z,8.75
2019-02-03T13:20:34.825Z,5.83
2019-02-03T13:23:01.604Z,6.65
2019-02-03T13:25:28.192Z,6.45
2019-02-03T13:27:54.732Z,5.03
2019-02-03T13:30:26.673Z,6.55
2019-02-03T13:32:53.328Z,5.45
2019-02-03T13:35:20.309Z,5.22
2019-02-03T13:37:46.859Z,5.17
2019-02-03T13:40:14.849Z,8.23
2019-02-03T13:42:41.313Z,5.65
2019-02-03T13:45:20.652Z,4.05
2019-02-03T13:47:39.688Z,4.12
2019-02-03T13:50:12.693Z,5.20
2019-02-03T13:52:39.228Z,6.12
2019-02-03T13:55:08.721Z,6.08
2019-02-03T13:57:35.176Z,4.85
2019-02-03T14:00:02.612Z,8.83
2019-02-03T14:02:29.177Z,4.90
2019-02-03T14:04:55.836Z,8.98
2019-02-03T14:07:22.421Z,6.42
2019-02-03T14:09:48.973Z,6.50
2019-02-03T14:12:15.455Z,9.78
2019-02-03T14:14:41.908Z,7.62
2019-02-03T14:17:08.606Z,6.17
2019-02-03T14:19:35.048Z,6.95
2019-02-03T14:22:02.035Z,9.63
2019-02-03T14:24:28.497Z,8.68
2019-02-03T14:26:55.080Z,7.12
2019-02-03T14:29:21.753Z,9.53
2019-02-03T14:31:48.489Z,4.95
2019-02-03T14:34:15.065Z,8.45
2019-02-03T14:36:41.641Z,6.17
2019-02-03T14:39:08.645Z,7.03
2019-02-03T14:41:35.292Z,5.20
2019-02-03T14:44:01.864Z,7.97
2019-02-03T14:46:28.580Z,9.80
2019-02-03T14:48:55.065Z,4.58
2019-02-03T14:51:21.609Z,8.65
2019-02-03T14:53:48.085Z,6.37
2019-02-03T14:56:14.715Z,4.87
2019-02-03T14:58:41.306Z,6.30
2019-02-03T15:01:07.852Z,7.28
2019-02-03T15:03:34.620Z,4.67
2019-02-03T15:06:01.071Z,5.10
2019-02-03T15:08:27.558Z,4.67
2019-02-03T15:10:53.992Z,9.75
2019-02-03T15:13:21.029Z,4.92
2019-02-03T15:15:47.699Z,3.77
2019-02-03T15:18:14.388Z,4.90
2019-02-03T15:20:40.955Z,5.58
2019-02-03T15:23:07.640Z,5.58
2019-02-03T15:25:34.363Z,6.03
2019-02-03T15:28:01.108Z,9.98
2019-02-03T15:30:34.487Z,5.53
2019-02-03T15:33:01.043Z,15.18
2019-02-03T15:35:27.890Z,6.42
2019-02-03T15:37:54.544Z,8.08
2019-02-03T15:40:22.838Z,18.20
2019-02-03T15:42:49.496Z,5.25
2019-02-03T15:45:18.048Z,4.97
2019-02-03T15:47:44.624Z,5.10
2019-02-03T15:50:25.760Z,6.28
2019-02-03T15:52:52.452Z,7.17
2019-02-03T15:55:24.828Z,6.25
2019-02-03T15:57:51.513Z,5.70
2019-02-03T16:00:30.232Z,6.03
2019-02-03T16:02:57.012Z,7.50
2019-02-03T16:05:23.760Z,6.62
2019-02-03T16:07:50.439Z,8.10
2019-02-03T16:10:24.455Z,5.67
2019-02-03T16:12:52.052Z,4.95
2019-02-03T16:15:18.687Z,7.22
2019-02-03T16:17:45.261Z,4.85
2019-02-03T16:20:17.668Z,11.80
2019-02-03T16:22:44.333Z,8.38
2019-02-03T16:25:11.506Z,9.08
2019-02-03T16:27:38.361Z,5.90
2019-02-03T16:30:14.264Z,5.90
2019-02-03T16:32:41.018Z,7.22
2019-02-03T16:35:10.295Z,8.88
2019-02-03T16:37:36.752Z,4.70
2019-02-03T16:40:07.025Z,8.55
2019-02-03T16:42:33.672Z,6.47
2019-02-03T16:45:00.352Z,6.10
2019-02-03T16:47:26.796Z,5.30
2019-02-03T16:49:53.265Z,10.85
2019-02-03T16:52:19.824Z,6.42
2019-02-03T16:54:46.464Z,5.92
2019-02-03T16:57:13.012Z,8.83
2019-02-03T16:59:39.971Z,11.35
2019-02-03T17:02:06.950Z,9.40
2019-02-03T17:04:33.897Z,10.13
2019-02-03T17:07:00.370Z,7.80
2019-02-03T17:09:27.016Z,11.20
2019-02-03T17:11:53.630Z,9.80
2019-02-03T17:14:20.327Z,12.47
2019-02-03T17:16:47.549Z,8.63
2019-02-03T17:19:14.002Z,7.70
2019-02-03T17:21:40.469Z,7.47
2019-02-03T17:24:07.231Z,9.50
2019-02-03T17:26:34.024Z,10.75
2019-02-03T17:29:00.684Z,8.65
2019-02-03T17:31:27.147Z,10.60
2019-02-03T17:33:54.009Z,12.28
2019-02-03T17:36:20.657Z,7.17
2019-02-03T17:38:47.223Z,12.15
2019-02-03T17:41:13.773Z,6.92
2019-02-03T17:43:40.259Z,9.98
2019-02-03T17:46:06.901Z,11.10
2019-02-03T17:48:33.489Z,7.72
2019-02-03T17:50:59.941Z,8.95
2019-02-03T17:53:26.874Z,14.68
2019-02-03T17:55:53.534Z,10.05
2019-02-03T17:58:20.002Z,7.25
2019-02-03T18:00:51.324Z,10.63
2019-02-03T18:03:18.029Z,10.80
2019-02-03T18:05:44.681Z,8.20
2019-02-03T18:08:11.636Z,6.87
2019-02-03T18:10:38.202Z,8.80
2019-02-03T18:13:05.928Z,7.12
2019-02-03T18:15:32.412Z,8.53
2019-02-03T18:17:58.877Z,5.30
2019-02-03T18:20:27.069Z,6.35
2019-02-03T18:22:53.983Z,7.12
2019-02-03T18:25:20.755Z,5.17
2019-02-03T18:27:47.405Z,6.55
2019-02-03T18:30:23.414Z,10.32
2019-02-03T18:32:50.364Z,5.72
2019-02-03T18:35:17.138Z,7.62
2019-02-03T18:37:43.881Z,7.47
2019-02-03T18:40:16.143Z,6.87
2019-02-03T18:42:42.816Z,13.13
2019-02-03T18:45:12.060Z,7.97
2019-02-03T18:47:38.653Z,6.10
2019-02-03T18:50:14.472Z,7.53
2019-02-03T18:52:41.144Z,10.78
2019-02-03T18:55:11.015Z,6.58
2019-02-03T18:57:37.740Z,11.75
2019-02-03T19:00:23.346Z,7.90
2019-02-03T19:02:49.927Z,6.80
2019-02-03T19:05:19.756Z,10.60
2019-02-03T19:07:46.708Z,7.05
2019-02-03T19:10:19.421Z,11.12
2019-02-03T19:12:46.368Z,7.42
2019-02-03T19:15:14.045Z,8.00
2019-02-03T19:17:40.516Z,7.20
2019-02-03T19:20:10.576Z,11.95
2019-02-03T19:22:37.421Z,8.55
2019-02-03T19:25:06.177Z,9.10
2019-02-03T19:27:32.720Z,8.13
2019-02-03T19:29:59.465Z,6.65
2019-02-03T19:32:26.114Z,8.90
2019-02-03T19:34:52.989Z,8.23
2019-02-03T19:37:19.833Z,9.18
2019-02-03T19:39:46.407Z,8.05
2019-02-03T19:42:13.070Z,9.50
2019-02-03T19:44:39.747Z,7.12
2019-02-03T19:47:06.388Z,8.58
2019-02-03T19:49:32.877Z,10.32
2019-02-03T19:51:59.421Z,11.00
2019-02-03T19:54:25.901Z,13.65
2019-02-03T19:56:52.559Z,8.08
2019-02-03T19:59:19.123Z,9.90
2019-02-03T20:01:45.684Z,10.25
2019-02-03T20:04:12.258Z,13.90
2019-02-03T20:06:38.803Z,14.03
2019-02-03T20:09:06.588Z,7.75
2019-02-03T20:11:33.284Z,9.28
2019-02-03T20:14:00.134Z,12.13
2019-02-03T20:16:26.726Z,6.85
2019-02-03T20:18:53.244Z,15.63
2019-02-03T20:21:19.646Z,13.22
2019-02-03T20:23:46.096Z,6.95
2019-02-03T20:26:12.586Z,10.88
2019-02-03T20:28:39.125Z,8.60
2019-02-03T20:31:05.696Z,12.85
2019-02-03T20:33:32.148Z,7.92
2019-02-03T20:35:58.889Z,9.58
2019-02-03T20:38:25.447Z,13.03
2019-02-03T20:40:51.903Z,13.62
2019-02-03T20:43:18.734Z,11.33
2019-02-03T20:45:49.634Z,11.43
2019-02-03T20:48:13.560Z,7.95
2019-02-03T20:50:40.327Z,28.27
2019-02-03T20:53:06.871Z,17.95
2019-02-03T20:55:33.569Z,13.28
2019-02-03T20:58:00.024Z,10.58
2019-02-03T21:00:29.757Z,11.10
2019-02-03T21:02:56.313Z,12.88
2019-02-03T21:05:23.056Z,12.45
2019-02-03T21:07:49.936Z,12.58
2019-02-03T21:10:18.399Z,11.78
2019-02-03T21:12:45.444Z,15.72
2019-02-03T21:15:15.322Z,10.45
2019-02-03T21:17:41.991Z,10.93
2019-02-03T21:20:17.859Z,13.80
2019-02-03T21:22:45.051Z,11.00
2019-02-03T21:25:11.700Z,11.73
2019-02-03T21:27:38.168Z,9.08
2019-02-03T21:30:08.436Z,16.75
2019-02-03T21:32:35.001Z,10.85
2019-02-03T21:35:01.554Z,13.43
2019-02-03T21:37:28.022Z,16.20
2019-02-03T21:39:56.316Z,11.15
2019-02-03T21:42:23.173Z,11.10
2019-02-03T21:44:49.888Z,9.68
2019-02-03T21:47:16.537Z,9.98
2019-02-03T21:49:43.116Z,12.03
2019-02-03T21:52:09.556Z,12.45
2019-02-03T21:54:36.035Z,11.12
2019-02-03T21:57:03.184Z,11.80
2019-02-03T21:59:29.773Z,11.53
2019-02-03T22:01:56.212Z,11.28
2019-02-03T22:04:22.960Z,18.17
2019-02-03T22:06:49.683Z,22.40
2019-02-03T22:09:16.369Z,14.15
2019-02-03T22:11:42.914Z,15.83
2019-02-03T22:14:09.661Z,15.53
2019-02-03T22:16:36.264Z,15.58
2019-02-03T22:19:02.903Z,12.88
2019-02-03T22:21:29.377Z,15.95
2019-02-03T22:23:55.812Z,13.72
2019-02-03T22:26:22.295Z,11.97
2019-02-03T22:28:48.937Z,15.85
2019-02-03T22:31:15.636Z,12.98
2019-02-03T22:33:42.085Z,16.65
2019-02-03T22:36:08.655Z,11.50
2019-02-03T22:38:35.213Z,20.65
2019-02-03T22:41:01.784Z,15.20
2019-02-03T22:43:28.225Z,16.93
2019-02-03T22:46:06.509Z,14.55
2019-02-03T22:48:23.688Z,13.68
2019-02-03T22:50:50.256Z,16.85
2019-02-03T22:53:16.720Z,17.77
2019-02-03T22:55:43.282Z,16.57
2019-02-03T22:58:09.860Z,12.47
2019-02-03T23:00:51.654Z,11.60
2019-02-03T23:03:20.559Z,21.45
2019-02-03T23:05:47.229Z,13.00
2019-02-03T23:08:13.804Z,15.05
2019-02-03T23:10:40.456Z,15.35
2019-02-03T23:13:07.337Z,14.65
2019-02-03T23:15:33.908Z,18.20
2019-02-03T23:18:00.989Z,18.20
2019-02-03T23:20:27.540Z,17.90
2019-02-03T23:22:54.125Z,23.20
2019-02-03T23:25:20.689Z,16.15
2019-02-03T23:27:47.168Z,15.88
2019-02-03T23:30:15.230Z,15.48
2019-02-03T23:32:41.787Z,14.30
2019-02-03T23:35:08.348Z,15.95
2019-02-03T23:37:35.050Z,18.10
2019-02-03T23:40:02.419Z,17.40
2019-02-03T23:42:28.984Z,14.85
2019-02-03T23:44:55.660Z,15.23
2019-02-03T23:47:22.119Z,15.03
2019-02-03T23:49:48.684Z,15.85
2019-02-03T23:52:15.238Z,16.27
2019-02-03T23:54:42.184Z,17.80
2019-02-03T23:57:08.640Z,24.45
2019-02-03T23:59:35.107Z,21.42
